createdAt,value
2017-06-17T00:01:23.762Z,16.90
2017-06-17T00:03:50.212Z,16.90
2017-06-17T00:06:16.682Z,16.90
2017-06-17T00:08:43.086Z,17.00
2017-06-17T00:11:09.515Z,17.00
2017-06-17T00:13:36.348Z,17.00
2017-06-17T00:16:02.860Z,17.10
2017-06-17T00:18:29.239Z,17.00
2017-06-17T00:20:56.408Z,17.00
2017-06-17T00:23:22.811Z,17.10
2017-06-17T00:25:49.237Z,17.00
2017-06-17T00:28:15.668Z,17.10
2017-06-17T00:30:42.107Z,17.20
2017-06-17T00:33:08.534Z,17.10
2017-06-17T00:35:35.009Z,17.20
2017-06-17T00:38:01.403Z,17.10
2017-06-17T00:40:27.816Z,17.00
2017-06-17T00:42:54.374Z,17.00
2017-06-17T00:45:20.837Z,17.00
2017-06-17T00:47:47.301Z,17.10
2017-06-17T00:50:13.773Z,17.10
2017-06-17T00:52:40.173Z,17.00
2017-06-17T00:55:06.609Z,17.00
2017-06-17T00:57:33.482Z,17.10
2017-06-17T00:59:59.921Z,17.10
2017-06-17T01:02:26.366Z,17.10
2017-06-17T01:04:52.827Z,16.90
2017-06-17T01:07:19.329Z,16.90
2017-06-17T01:09:45.713Z,16.70
2017-06-17T01:12:12.218Z,16.80
2017-06-17T01:14:39.403Z,16.70
2017-06-17T01:17:06.927Z,16.70
2017-06-17T01:19:34.312Z,16.60
2017-06-17T01:22:01.721Z,16.60
2017-06-17T01:24:28.157Z,16.60
2017-06-17T01:26:55.350Z,16.50
2017-06-17T01:29:21.790Z,16.50
2017-06-17T01:31:48.240Z,16.50
2017-06-17T01:34:14.691Z,16.50
2017-06-17T01:36:41.213Z,16.60
2017-06-17T01:39:07.613Z,16.60
2017-06-17T01:41:34.092Z,16.60
2017-06-17T01:44:00.559Z,16.60
2017-06-17T01:46:27.168Z,16.70
2017-06-17T01:48:53.606Z,16.60
2017-06-17T01:51:20.034Z,16.50
2017-06-17T01:53:46.468Z,16.40
2017-06-17T01:56:13.042Z,16.40
2017-06-17T01:58:39.442Z,16.30
2017-06-17T02:01:06.058Z,16.30
2017-06-17T02:03:32.553Z,16.20
2017-06-17T02:05:59.016Z,16.20
2017-06-17T02:08:25.423Z,16.10
2017-06-17T02:10:51.860Z,16.00
2017-06-17T02:13:18.287Z,16.00
2017-06-17T02:15:44.800Z,16.00
2017-06-17T02:18:11.314Z,16.00
2017-06-17T02:20:37.749Z,16.00
2017-06-17T02:23:04.162Z,16.10
2017-06-17T02:25:30.618Z,16.00
2017-06-17T02:27:57.973Z,16.00
2017-06-17T02:30:25.420Z,15.90
2017-06-17T02:32:51.848Z,15.80
2017-06-17T02:35:18.591Z,15.90
2017-06-17T02:37:45.070Z,15.90
2017-06-17T02:40:11.832Z,15.90
2017-06-17T02:42:38.286Z,15.80
2017-06-17T02:45:04.849Z,15.80
2017-06-17T02:47:32.072Z,15.80
2017-06-17T02:49:59.457Z,15.80
2017-06-17T02:52:26.687Z,15.70
2017-06-17T02:54:53.165Z,15.70
2017-06-17T02:57:19.615Z,15.70
2017-06-17T02:59:46.042Z,15.70
2017-06-17T03:02:12.616Z,15.70
2017-06-17T03:04:39.043Z,15.70
2017-06-17T03:07:05.468Z,15.70
2017-06-17T03:09:32.824Z,15.80
2017-06-17T03:12:00.093Z,15.80
2017-06-17T03:14:26.711Z,15.80
2017-06-17T03:16:53.157Z,15.80
2017-06-17T03:19:19.580Z,15.80
2017-06-17T03:21:45.983Z,15.80
2017-06-17T03:24:12.526Z,15.80
2017-06-17T03:26:38.947Z,15.70
2017-06-17T03:29:05.337Z,15.70
2017-06-17T03:31:31.798Z,15.80
2017-06-17T03:33:58.382Z,15.70
2017-06-17T03:36:24.814Z,15.70
2017-06-17T03:38:51.294Z,15.70
2017-06-17T03:41:17.748Z,15.60
2017-06-17T03:43:44.176Z,15.70
2017-06-17T03:46:10.650Z,15.60
2017-06-17T03:48:42.360Z,15.70
2017-06-17T03:51:08.802Z,15.70
2017-06-17T03:53:35.347Z,15.80
2017-06-17T03:56:01.852Z,15.70
2017-06-17T03:58:28.309Z,15.80
2017-06-17T04:00:54.747Z,15.70
2017-06-17T04:03:21.291Z,15.70
2017-06-17T04:05:47.722Z,15.70
2017-06-17T04:08:14.228Z,15.80
2017-06-17T04:10:40.741Z,15.80
2017-06-17T04:13:07.889Z,15.80
2017-06-17T04:15:35.194Z,15.80
2017-06-17T04:18:01.602Z,15.80
2017-06-17T04:20:28.020Z,15.70
2017-06-17T04:22:55.194Z,15.80
2017-06-17T04:25:21.619Z,15.70
2017-06-17T04:27:48.021Z,15.70
2017-06-17T04:30:15.214Z,15.80
2017-06-17T04:32:41.814Z,15.80
2017-06-17T04:35:08.258Z,15.80
2017-06-17T04:37:34.692Z,15.90
2017-06-17T04:40:01.158Z,15.90
2017-06-17T04:42:27.597Z,15.90
2017-06-17T04:44:54.137Z,16.00
2017-06-17T04:47:20.579Z,16.00
2017-06-17T04:49:47.153Z,16.00
2017-06-17T04:52:14.461Z,15.90
2017-06-17T04:54:40.940Z,15.90
2017-06-17T04:57:08.140Z,16.00
2017-06-17T04:59:34.637Z,15.90
2017-06-17T05:02:01.108Z,16.00
2017-06-17T05:04:27.601Z,16.00
2017-06-17T05:06:54.082Z,16.00
2017-06-17T05:09:20.561Z,16.10
2017-06-17T05:11:47.147Z,16.10
2017-06-17T05:14:13.594Z,16.10
2017-06-17T05:16:40.161Z,16.10
2017-06-17T05:19:06.622Z,16.10
2017-06-17T05:21:33.107Z,16.20
2017-06-17T05:23:59.548Z,16.20
2017-06-17T05:26:25.977Z,16.20
2017-06-17T05:28:53.172Z,16.30
2017-06-17T05:31:19.578Z,16.20
2017-06-17T05:33:46.000Z,16.30
2017-06-17T05:36:13.221Z,16.40
2017-06-17T05:38:39.785Z,16.40
2017-06-17T05:41:06.932Z,16.80
2017-06-17T05:43:33.435Z,16.70
2017-06-17T05:45:59.850Z,16.80
2017-06-17T05:48:26.320Z,16.90
2017-06-17T05:50:52.765Z,16.80
2017-06-17T05:53:19.917Z,16.90
2017-06-17T05:55:47.122Z,16.90
2017-06-17T05:58:14.537Z,16.90
2017-06-17T06:00:47.948Z,17.00
2017-06-17T06:03:21.396Z,17.00
2017-06-17T06:05:47.812Z,17.00
2017-06-17T06:08:14.244Z,17.00
2017-06-17T06:10:40.714Z,17.20
2017-06-17T06:13:07.904Z,17.50
2017-06-17T06:15:34.367Z,17.40
2017-06-17T06:18:00.988Z,17.60
2017-06-17T06:20:27.374Z,17.90
2017-06-17T06:22:53.789Z,18.00
2017-06-17T06:25:20.227Z,17.90
2017-06-17T06:27:47.517Z,17.90
2017-06-17T06:30:13.997Z,18.10
2017-06-17T06:32:40.475Z,18.10
2017-06-17T06:35:06.923Z,18.00
2017-06-17T06:37:33.416Z,18.30
2017-06-17T06:40:01.178Z,18.40
2017-06-17T06:42:27.595Z,18.40
2017-06-17T06:44:54.056Z,18.40
2017-06-17T06:47:20.644Z,18.60
2017-06-17T06:49:47.073Z,18.80
2017-06-17T06:52:14.168Z,19.10
2017-06-17T06:54:48.314Z,18.70
2017-06-17T06:57:14.783Z,18.70
2017-06-17T06:59:41.449Z,18.80
2017-06-17T07:02:08.173Z,18.80
2017-06-17T07:04:34.647Z,18.80
2017-06-17T07:07:01.114Z,18.80
2017-06-17T07:09:27.539Z,18.60
2017-06-17T07:11:53.981Z,18.70
2017-06-17T07:14:20.413Z,18.80
2017-06-17T07:16:46.902Z,18.70
2017-06-17T07:19:13.392Z,18.70
2017-06-17T07:21:39.818Z,18.50
2017-06-17T07:24:06.295Z,18.60
2017-06-17T07:26:32.720Z,19.00
2017-06-17T07:28:59.942Z,19.20
2017-06-17T07:31:26.562Z,19.20
2017-06-17T07:33:53.106Z,19.20
2017-06-17T07:36:19.618Z,19.20
2017-06-17T07:38:46.141Z,19.60
2017-06-17T07:41:12.724Z,19.60
2017-06-17T07:43:39.144Z,19.30
2017-06-17T07:46:05.612Z,19.40
2017-06-17T07:48:32.040Z,19.30
2017-06-17T07:50:58.817Z,19.90
2017-06-17T07:53:25.289Z,20.50
2017-06-17T07:55:51.775Z,21.30
2017-06-17T07:58:18.372Z,21.50
2017-06-17T08:00:44.998Z,21.60
2017-06-17T08:03:11.439Z,21.30
2017-06-17T08:05:37.857Z,20.90
2017-06-17T08:08:04.587Z,20.50
2017-06-17T08:10:31.024Z,20.20
2017-06-17T08:12:57.479Z,20.20
2017-06-17T08:15:23.955Z,20.40
2017-06-17T08:17:50.407Z,21.30
2017-06-17T08:20:16.846Z,21.50
2017-06-17T08:22:43.314Z,21.90
2017-06-17T08:25:09.788Z,22.30
2017-06-17T08:27:36.292Z,22.60
2017-06-17T08:30:02.858Z,22.60
2017-06-17T08:32:29.277Z,22.90
2017-06-17T08:34:56.509Z,23.30
2017-06-17T08:37:23.468Z,23.30
2017-06-17T08:39:49.974Z,22.80
2017-06-17T08:42:16.392Z,23.00
2017-06-17T08:44:43.426Z,23.00
2017-06-17T08:47:09.846Z,22.80
2017-06-17T08:49:36.414Z,22.40
2017-06-17T08:52:02.862Z,22.20
2017-06-17T08:54:29.287Z,22.00
2017-06-17T08:56:55.695Z,22.40
2017-06-17T08:59:22.184Z,22.90
2017-06-17T09:01:49.356Z,23.10
2017-06-17T09:04:15.813Z,23.10
2017-06-17T09:06:42.348Z,22.70
2017-06-17T09:09:09.429Z,23.20
2017-06-17T09:11:42.892Z,23.30
2017-06-17T09:14:09.305Z,23.60
2017-06-17T09:16:35.777Z,24.10
2017-06-17T09:19:02.210Z,24.00
2017-06-17T09:21:28.745Z,24.30
2017-06-17T09:23:55.232Z,24.40
2017-06-17T09:26:28.811Z,23.80
2017-06-17T09:28:56.078Z,23.70
2017-06-17T09:31:22.614Z,23.60
2017-06-17T09:33:49.075Z,23.80
2017-06-17T09:36:15.488Z,23.70
2017-06-17T09:38:50.057Z,24.50
2017-06-17T09:41:16.492Z,25.00
2017-06-17T09:43:43.897Z,24.10
2017-06-17T09:46:10.360Z,24.80
2017-06-17T09:48:36.785Z,25.00
2017-06-17T09:51:03.372Z,25.20
2017-06-17T09:53:30.596Z,25.10
2017-06-17T09:55:57.041Z,25.10
2017-06-17T09:58:23.466Z,25.40
2017-06-17T10:00:49.889Z,27.50
2017-06-17T10:03:16.334Z,31.80
2017-06-17T10:05:43.109Z,35.40
2017-06-17T10:08:09.582Z,37.50
2017-06-17T10:10:36.014Z,39.60
2017-06-17T10:13:02.542Z,37.60
2017-06-17T10:15:29.004Z,33.50
2017-06-17T10:17:55.425Z,30.60
2017-06-17T10:20:22.158Z,28.70
2017-06-17T10:22:48.631Z,29.50
2017-06-17T10:25:16.033Z,28.70
2017-06-17T10:27:42.486Z,27.30
2017-06-17T10:30:08.935Z,31.60
2017-06-17T10:32:35.521Z,31.60
2017-06-17T10:35:01.963Z,34.90
2017-06-17T10:37:28.617Z,37.20
2017-06-17T10:39:55.079Z,40.00
2017-06-17T10:42:21.552Z,40.40
2017-06-17T10:44:48.054Z,41.20
2017-06-17T10:47:14.752Z,39.50
2017-06-17T10:49:41.223Z,33.40
2017-06-17T10:52:07.802Z,33.80
2017-06-17T10:54:34.211Z,29.30
2017-06-17T10:57:01.750Z,29.10
2017-06-17T10:59:28.371Z,29.00
2017-06-17T11:01:54.989Z,35.40
2017-06-17T11:04:22.262Z,38.40
2017-06-17T11:06:49.774Z,34.10
2017-06-17T11:09:16.201Z,32.80
2017-06-17T11:11:42.714Z,33.50
2017-06-17T11:14:09.176Z,34.00
2017-06-17T11:16:35.607Z,39.00
2017-06-17T11:19:02.072Z,36.50
2017-06-17T11:21:28.575Z,42.70
2017-06-17T11:23:55.040Z,46.60
2017-06-17T11:26:21.672Z,39.20
2017-06-17T11:28:48.165Z,35.40
2017-06-17T11:31:15.258Z,35.30
2017-06-17T11:33:41.657Z,33.70
2017-06-17T11:36:08.148Z,32.50
2017-06-17T11:38:34.542Z,30.30
2017-06-17T11:41:00.938Z,28.90
2017-06-17T11:43:28.436Z,26.60
2017-06-17T11:45:54.876Z,26.40
2017-06-17T11:48:21.317Z,26.30
2017-06-17T11:50:47.807Z,26.50
2017-06-17T11:53:21.158Z,26.40
2017-06-17T11:55:47.701Z,27.10
2017-06-17T11:58:14.320Z,32.60
2017-06-17T12:00:41.150Z,35.50
2017-06-17T12:03:07.714Z,36.90
2017-06-17T12:05:35.205Z,34.50
2017-06-17T12:08:01.641Z,31.40
2017-06-17T12:10:28.122Z,29.10
2017-06-17T12:12:55.277Z,27.10
2017-06-17T12:15:21.690Z,25.70
2017-06-17T12:17:48.206Z,25.20
2017-06-17T12:20:14.666Z,24.80
2017-06-17T12:22:41.130Z,24.80
2017-06-17T12:25:07.570Z,24.40
2017-06-17T12:27:34.749Z,23.50
2017-06-17T12:30:01.182Z,23.40
2017-06-17T12:32:27.821Z,23.00
2017-06-17T12:34:54.428Z,23.10
2017-06-17T12:37:20.938Z,22.70
2017-06-17T12:39:47.512Z,22.90
2017-06-17T12:42:14.026Z,22.90
2017-06-17T12:44:40.774Z,22.90
2017-06-17T12:47:08.016Z,23.50
2017-06-17T12:49:34.429Z,23.50
2017-06-17T12:52:00.896Z,23.70
2017-06-17T12:54:27.558Z,23.40
2017-06-17T12:56:54.741Z,23.30
2017-06-17T12:59:21.164Z,23.50
2017-06-17T13:01:47.698Z,23.20
2017-06-17T13:04:14.205Z,23.30
2017-06-17T13:06:40.643Z,22.90
2017-06-17T13:09:07.300Z,22.70
2017-06-17T13:11:33.803Z,23.10
2017-06-17T13:14:00.215Z,23.10
2017-06-17T13:16:26.619Z,22.90
2017-06-17T13:18:53.124Z,22.70
2017-06-17T13:21:19.541Z,22.60
2017-06-17T13:23:45.975Z,22.40
2017-06-17T13:26:12.559Z,22.70
2017-06-17T13:28:38.938Z,22.80
2017-06-17T13:31:06.124Z,22.80
2017-06-17T13:33:32.758Z,22.80
2017-06-17T13:35:59.183Z,22.60
2017-06-17T13:38:25.593Z,22.80
2017-06-17T13:40:52.056Z,22.90
2017-06-17T13:43:19.282Z,23.00
2017-06-17T13:45:45.759Z,23.00
2017-06-17T13:48:12.420Z,23.00
2017-06-17T13:50:46.717Z,22.60
2017-06-17T13:53:13.368Z,22.60
2017-06-17T13:55:40.613Z,23.10
2017-06-17T13:58:07.316Z,23.10
2017-06-17T14:00:33.756Z,23.20
2017-06-17T14:03:00.191Z,23.30
2017-06-17T14:05:26.623Z,23.20
2017-06-17T14:07:53.183Z,23.00
2017-06-17T14:10:19.690Z,22.90
2017-06-17T14:12:46.122Z,22.10
2017-06-17T14:15:12.857Z,22.10
2017-06-17T14:17:39.341Z,22.10
2017-06-17T14:20:06.523Z,22.30
2017-06-17T14:22:32.976Z,22.30
2017-06-17T14:24:59.406Z,22.10
2017-06-17T14:27:25.848Z,21.90
2017-06-17T14:29:52.313Z,21.90
2017-06-17T14:32:18.812Z,22.20
2017-06-17T14:34:45.261Z,22.50
2017-06-17T14:37:11.649Z,22.60
2017-06-17T14:39:38.114Z,23.00
2017-06-17T14:42:04.549Z,22.70
2017-06-17T14:44:30.988Z,22.50
2017-06-17T14:46:57.386Z,21.90
2017-06-17T14:49:23.782Z,21.90
2017-06-17T14:51:50.945Z,21.40
2017-06-17T14:54:18.159Z,21.00
2017-06-17T14:56:45.010Z,20.90
2017-06-17T14:59:11.411Z,20.60
2017-06-17T15:01:37.807Z,20.40
2017-06-17T15:04:04.238Z,20.40
2017-06-17T15:06:30.620Z,20.10
2017-06-17T15:08:57.022Z,19.70
2017-06-17T15:11:23.467Z,19.40
2017-06-17T15:13:49.868Z,19.50
2017-06-17T15:16:16.464Z,19.40
2017-06-17T15:18:42.938Z,19.20
2017-06-17T15:21:09.352Z,19.10
2017-06-17T15:23:36.558Z,19.10
2017-06-17T15:26:03.082Z,19.10
2017-06-17T15:28:29.490Z,18.80
2017-06-17T15:30:55.874Z,19.10
2017-06-17T15:33:22.352Z,19.30
2017-06-17T15:35:48.796Z,19.80
2017-06-17T15:38:15.757Z,19.80
2017-06-17T15:40:42.249Z,19.70
2017-06-17T15:43:09.399Z,19.30
2017-06-17T15:45:35.873Z,19.20
2017-06-17T15:48:02.462Z,19.30
2017-06-17T15:50:29.769Z,19.10
2017-06-17T15:52:56.230Z,19.00
2017-06-17T15:55:22.804Z,19.00
2017-06-17T15:57:49.369Z,19.10
2017-06-17T16:00:16.367Z,19.10
2017-06-17T16:02:43.527Z,18.80
2017-06-17T16:05:10.056Z,18.80
2017-06-17T16:07:37.355Z,19.20
2017-06-17T16:10:03.825Z,19.10
2017-06-17T16:12:31.025Z,19.80
2017-06-17T16:14:57.447Z,19.80
2017-06-17T16:17:23.895Z,19.60
2017-06-17T16:19:50.360Z,19.70
2017-06-17T16:22:16.779Z,19.30
2017-06-17T16:24:46.255Z,19.70
2017-06-17T16:27:13.185Z,19.40
2017-06-17T16:29:48.842Z,19.20
2017-06-17T16:32:15.434Z,19.10
2017-06-17T16:34:44.064Z,18.70
2017-06-17T16:37:12.546Z,18.70
2017-06-17T16:39:39.624Z,18.70
2017-06-17T16:42:06.048Z,18.60
2017-06-17T16:44:32.538Z,18.70
2017-06-17T16:46:59.727Z,18.60
2017-06-17T16:49:26.127Z,18.60
2017-06-17T16:51:52.620Z,18.50
2017-06-17T16:54:19.058Z,18.40
2017-06-17T16:56:45.483Z,18.40
2017-06-17T16:59:15.886Z,18.80
2017-06-17T17:01:42.291Z,18.70
2017-06-17T17:04:08.890Z,18.60
2017-06-17T17:06:36.129Z,18.30
2017-06-17T17:09:02.750Z,18.30
2017-06-17T17:11:29.514Z,18.10
2017-06-17T17:13:55.951Z,18.00
2017-06-17T17:16:22.512Z,17.80
2017-06-17T17:19:03.322Z,17.90
2017-06-17T17:21:29.723Z,17.90
2017-06-17T17:23:57.004Z,17.90
2017-06-17T17:26:23.466Z,17.90
2017-06-17T17:28:49.872Z,17.90
2017-06-17T17:31:16.734Z,17.90
2017-06-17T17:33:43.197Z,17.70
2017-06-17T17:36:10.390Z,17.60
2017-06-17T17:38:36.861Z,17.60
2017-06-17T17:41:03.436Z,17.50
2017-06-17T17:43:29.904Z,17.40
2017-06-17T17:45:57.173Z,17.40
2017-06-17T17:48:23.797Z,17.40
2017-06-17T17:50:50.198Z,17.40
2017-06-17T17:53:21.742Z,17.60
2017-06-17T17:55:48.256Z,17.40
2017-06-17T17:58:15.649Z,17.20
2017-06-17T18:00:42.142Z,17.10
2017-06-17T18:03:09.432Z,17.20
2017-06-17T18:05:35.893Z,17.20
2017-06-17T18:08:02.300Z,17.00
2017-06-17T18:10:28.763Z,16.80
2017-06-17T18:12:55.204Z,16.80
2017-06-17T18:15:21.648Z,16.80
2017-06-17T18:17:48.776Z,16.60
2017-06-17T18:20:15.209Z,16.70
2017-06-17T18:22:41.719Z,16.90
2017-06-17T18:25:08.227Z,17.00
2017-06-17T18:27:34.711Z,17.30
2017-06-17T18:30:01.262Z,17.20
2017-06-17T18:32:27.853Z,17.10
2017-06-17T18:34:54.353Z,17.10
2017-06-17T18:37:21.620Z,17.20
2017-06-17T18:39:48.101Z,17.10
2017-06-17T18:42:14.842Z,17.20
2017-06-17T18:44:41.296Z,17.10
2017-06-17T18:47:07.926Z,17.10
2017-06-17T18:49:34.625Z,17.10
2017-06-17T18:52:01.080Z,17.10
2017-06-17T18:54:27.625Z,17.00
2017-06-17T18:56:54.357Z,16.80
2017-06-17T18:59:20.798Z,16.80
2017-06-17T19:01:47.432Z,16.80
2017-06-17T19:04:13.904Z,17.10
2017-06-17T19:06:40.537Z,17.20
2017-06-17T19:09:07.245Z,17.30
2017-06-17T19:11:33.721Z,17.40
2017-06-17T19:14:00.158Z,17.40
2017-06-17T19:16:26.930Z,17.40
2017-06-17T19:18:53.707Z,17.40
2017-06-17T19:21:20.194Z,17.40
2017-06-17T19:23:46.676Z,17.20
2017-06-17T19:26:13.367Z,17.00
2017-06-17T19:28:45.643Z,17.00
2017-06-17T19:31:12.448Z,16.90
2017-06-17T19:33:39.786Z,17.10
2017-06-17T19:36:06.240Z,17.10
2017-06-17T19:38:32.909Z,17.60
2017-06-17T19:40:59.573Z,17.80
2017-06-17T19:43:27.008Z,17.50
2017-06-17T19:45:56.500Z,17.40
2017-06-17T19:48:30.337Z,17.40
2017-06-17T19:50:56.903Z,17.40
2017-06-17T19:53:24.319Z,17.30
2017-06-17T19:55:50.877Z,17.30
2017-06-17T19:58:17.360Z,17.30
2017-06-17T20:00:43.790Z,17.20
2017-06-17T20:03:10.828Z,17.20
2017-06-17T20:05:37.320Z,17.40
2017-06-17T20:08:03.787Z,17.30
2017-06-17T20:10:30.333Z,17.40
2017-06-17T20:12:56.876Z,17.30
2017-06-17T20:15:23.417Z,17.20
2017-06-17T20:17:51.449Z,17.30
2017-06-17T20:20:18.816Z,17.40
2017-06-17T20:22:46.986Z,17.30
2017-06-17T20:25:14.160Z,17.30
2017-06-17T20:27:40.706Z,17.30
2017-06-17T20:30:07.581Z,17.30
2017-06-17T20:32:34.035Z,17.10
2017-06-17T20:35:01.948Z,17.30
2017-06-17T20:37:28.588Z,17.20
2017-06-17T20:39:55.297Z,17.20
2017-06-17T20:42:28.907Z,17.10
2017-06-17T20:44:55.575Z,17.10
2017-06-17T20:47:22.054Z,17.10
2017-06-17T20:49:49.359Z,17.10
2017-06-17T20:52:16.412Z,17.10
2017-06-17T20:54:43.067Z,17.10
2017-06-17T20:57:40.423Z,17.10
2017-06-17T21:00:07.422Z,17.10
2017-06-17T21:02:34.940Z,17.10
2017-06-17T21:05:01.513Z,17.10
2017-06-17T21:07:28.010Z,17.20
2017-06-17T21:09:54.542Z,17.20
2017-06-17T21:12:21.069Z,17.10
2017-06-17T21:14:47.604Z,17.10
2017-06-17T21:17:14.066Z,17.00
2017-06-17T21:19:40.674Z,16.90
2017-06-17T21:22:09.905Z,16.80
2017-06-17T21:24:38.099Z,16.90
2017-06-17T21:27:04.586Z,16.90
2017-06-17T21:29:31.053Z,17.00
2017-06-17T21:31:57.569Z,16.80
2017-06-17T21:34:24.917Z,16.80
2017-06-17T21:36:51.417Z,16.80
2017-06-17T21:39:17.954Z,16.80
2017-06-17T21:41:44.405Z,16.70
2017-06-17T21:44:10.963Z,16.80
2017-06-17T21:46:38.191Z,16.80
2017-06-17T21:49:04.649Z,16.70
2017-06-17T21:51:31.790Z,16.90
2017-06-17T21:54:00.344Z,16.90
2017-06-17T21:56:26.774Z,16.90
2017-06-17T21:58:53.260Z,16.80
2017-06-17T22:01:19.704Z,16.90
2017-06-17T22:03:46.200Z,16.90
2017-06-17T22:06:13.036Z,17.00
2017-06-17T22:08:39.496Z,17.00
2017-06-17T22:11:13.044Z,17.00
2017-06-17T22:13:39.477Z,17.10
2017-06-17T22:16:05.888Z,17.10
2017-06-17T22:18:33.334Z,17.00
2017-06-17T22:21:00.724Z,17.10
2017-06-17T22:23:35.689Z,17.00
2017-06-17T22:26:02.128Z,17.10
2017-06-17T22:28:29.879Z,17.10
2017-06-17T22:30:56.354Z,17.10
2017-06-17T22:33:23.645Z,17.00
2017-06-17T22:35:57.093Z,17.10
2017-06-17T22:38:24.191Z,17.20
2017-06-17T22:40:51.398Z,17.10
2017-06-17T22:43:18.729Z,17.10
2017-06-17T22:45:48.588Z,17.10
2017-06-17T22:48:16.582Z,17.20
2017-06-17T22:50:44.574Z,17.30
2017-06-17T22:53:11.916Z,17.10
2017-06-17T22:55:39.274Z,17.20
2017-06-17T22:58:05.693Z,17.20
2017-06-17T23:00:32.278Z,17.20
2017-06-17T23:02:58.705Z,17.30
2017-06-17T23:05:25.305Z,17.30
2017-06-17T23:07:51.938Z,17.30
2017-06-17T23:10:19.484Z,17.30
2017-06-17T23:12:45.909Z,17.30
2017-06-17T23:15:18.369Z,17.20
2017-06-17T23:17:45.397Z,17.20
2017-06-17T23:20:28.033Z,17.30
2017-06-17T23:23:03.126Z,17.40
2017-06-17T23:25:29.774Z,17.20
2017-06-17T23:27:56.185Z,17.20
2017-06-17T23:30:22.616Z,17.30
2017-06-17T23:32:49.821Z,17.30
2017-06-17T23:35:16.210Z,17.30
2017-06-17T23:37:43.393Z,17.40
2017-06-17T23:40:09.843Z,17.40
2017-06-17T23:42:36.243Z,17.40
2017-06-17T23:45:02.638Z,17.40
2017-06-17T23:47:36.192Z,17.40
2017-06-17T23:50:02.728Z,17.40
2017-06-17T23:52:29.308Z,17.50
2017-06-17T23:54:55.723Z,17.40
2017-06-17T23:57:22.191Z,17.40
2017-06-17T23:59:48.933Z,17.30
